Time;durP1;ratioP1;P1;durP2;ratioP2;P2;SDS_P1;SDS_P2;PMS_P1;PMS_P2;Temp;Humidity;BMP_temperature;BMP_pressure;BME280_temperature;BME280_humidity;BME280_pressure;Samples;Min_cycle;Max_cycle;Signal;HPM_P1;HPM_P2
2022/11/01 00:00:17;;;;;;;0.65;0.65;;;;;;;13.52;73.90;100565.28;4397225;32;31692;-83
2022/11/01 00:02:45;;;;;;;2.17;1.65;;;;;;;14.09;71.75;100562.75;4368126;32;34325;-82
2022/11/01 00:05:13;;;;;;;1.27;1.17;;;;;;;13.96;72.19;100564.28;4384333;32;33227;-83
2022/11/01 00:07:41;;;;;;;1.75;1.35;;;;;;;13.77;72.91;100553.62;4373536;32;33793;-83
2022/11/01 00:10:09;;;;;;;2.42;1.35;;;;;;;13.78;72.99;100553.53;4372158;32;33216;-83
2022/11/01 00:12:37;;;;;;;5.72;2.22;;;;;;;14.09;71.87;100554.78;4396670;32;33553;-83
2022/11/01 00:15:09;;;;;;;1.25;0.98;;;;;;;13.83;72.54;100550.69;4369411;32;33828;-83
2022/11/01 00:17:37;;;;;;;3.22;2.92;;;;;;;13.71;73.06;100552.09;4371866;32;33542;-84
2022/11/01 00:20:05;;;;;;;0.98;0.98;;;;;;;13.67;73.38;100553.16;4383809;32;33015;-84
2022/11/01 00:22:34;;;;;;;5.00;2.08;;;;;;;13.89;72.58;100547.75;4367783;32;34100;-84
2022/11/01 00:25:02;;;;;;;1.25;1.17;;;;;;;14.04;72.37;100547.03;4373631;32;33730;-84
2022/11/01 00:27:30;;;;;;;1.02;1.02;;;;;;;14.03;72.27;100555.09;4372477;32;32476;-82
2022/11/01 00:29:58;;;;;;;0.65;0.65;;;;;;;14.16;71.72;100547.41;4389444;32;33791;-83
2022/11/01 00:32:26;;;;;;;0.90;0.90;;;;;;;14.17;71.45;100536.72;4390616;32;32186;-83
2022/11/01 00:34:54;;;;;;;1.62;1.42;;;;;;;13.84;72.61;100541.78;4389535;32;34928;-84
2022/11/01 00:37:23;;;;;;;2.00;1.83;;;;;;;13.67;73.20;100545.19;4390763;32;34425;-84
2022/11/01 00:39:51;;;;;;;1.25;1.15;;;;;;;13.70;73.10;100549.50;4391250;32;33603;-84
2022/11/01 00:42:18;;;;;;;1.60;1.50;;;;;;;13.95;71.75;100547.44;4378065;32;32866;-83
2022/11/01 00:44:46;;;;;;;1.12;1.08;;;;;;;13.99;71.82;100540.22;4378587;32;33151;-82
2022/11/01 00:47:14;;;;;;;0.93;0.93;;;;;;;13.97;71.52;100544.75;4378590;32;33385;-83
2022/11/01 00:49:42;;;;;;;1.55;0.98;;;;;;;13.48;73.73;100550.47;4390919;32;32985;-83
2022/11/01 00:52:10;;;;;;;2.28;1.45;;;;;;;13.32;74.59;100542.28;4390271;32;33714;-83
2022/11/01 00:54:38;;;;;;;0.77;0.52;;;;;;;13.18;74.80;100546.44;4391236;32;33885;-82
2022/11/01 00:57:07;;;;;;;2.10;2.00;;;;;;;13.44;73.80;100534.75;4366501;32;33183;-83
2022/11/01 00:59:35;;;;;;;2.42;2.03;;;;;;;13.38;74.25;100535.84;4378548;32;34088;-83
2022/11/01 01:02:08;;;;;;;0.70;0.62;;;;;;;13.36;74.20;100520.97;4389817;32;33329;-83
2022/11/01 01:04:41;;;;;;;1.17;0.77;;;;;;;13.26;74.46;100520.50;4378765;32;34639;-83
2022/11/01 01:07:10;;;;;;;0.20;0.20;;;;;;;13.42;74.16;100524.19;4378724;32;33670;-83
2022/11/01 01:09:38;;;;;;;2.00;1.50;;;;;;;13.30;74.40;100519.44;4392151;32;34376;-83
2022/11/01 01:12:05;;;;;;;2.03;1.85;;;;;;;13.31;74.35;100523.81;4393853;32;32787;-82
2022/11/01 01:14:34;;;;;;;3.87;1.60;;;;;;;13.50;74.04;100523.88;4377612;32;33322;-83
2022/11/01 01:17:01;;;;;;;6.82;3.15;;;;;;;13.48;73.98;100513.31;4378107;32;32704;-82
2022/11/01 01:19:30;;;;;;;2.12;1.87;;;;;;;13.22;75.11;100513.59;4403074;32;33446;-82
2022/11/01 01:21:59;;;;;;;0.90;0.90;;;;;;;13.26;74.61;100505.44;4365887;32;32943;-82
2022/11/01 01:24:27;;;;;;;0.95;0.95;;;;;;;13.14;75.25;100494.47;4377891;32;34722;-82
2022/11/01 01:26:55;;;;;;;3.05;1.95;;;;;;;13.30;74.80;100507.03;4377326;32;33359;-82
2022/11/01 01:29:23;;;;;;;1.87;1.67;;;;;;;13.23;74.90;100510.00;4377943;32;34175;-82
2022/11/01 01:31:51;;;;;;;2.92;2.22;;;;;;;12.60;77.16;100509.09;4378525;32;34581;-82
2022/11/01 01:34:21;;;;;;;2.03;1.90;;;;;;;12.77;76.52;100511.91;4377820;32;34052;-82
2022/11/01 01:36:50;;;;;;;4.40;1.23;;;;;;;13.06;75.83;100513.38;4390034;32;32646;-82
2022/11/01 01:39:19;;;;;;;1.83;1.65;;;;;;;12.95;76.04;100510.28;4390436;32;33285;-82
2022/11/01 01:41:56;;;;;;;1.48;1.37;;;;;;;13.25;74.71;100497.56;4390230;32;33879;-82
2022/11/01 01:44:49;;;;;;;3.08;2.30;;;;;;;13.22;74.88;100497.69;4378884;32;34408;-82
2022/11/01 01:47:31;;;;;;;3.70;1.97;;;;;;;13.17;75.06;100494.34;4390194;32;32536;-82
2022/11/01 01:50:13;;;;;;;3.78;3.47;;;;;;;13.33;74.20;100500.72;4377400;32;32182;-83
2022/11/01 01:52:55;;;;;;;1.20;1.12;;;;;;;13.14;74.54;100513.03;4403174;32;33620;-82
2022/11/01 01:55:29;;;;;;;0.57;0.55;;;;;;;13.38;73.70;100500.50;4364621;32;34032;-82
2022/11/01 01:57:57;;;;;;;5.20;1.33;;;;;;;13.45;73.69;100488.72;4390171;32;33900;-82
2022/11/01 02:00:26;;;;;;;6.97;1.70;;;;;;;13.58;72.70;100482.78;4377954;32;32829;-82
2022/11/01 02:02:54;;;;;;;1.60;1.50;;;;;;;13.26;73.74;100493.97;4377653;32;33647;-82
2022/11/01 02:05:36;;;;;;;1.85;1.48;;;;;;;13.54;73.07;100491.81;4376890;32;34467;-82
2022/11/01 02:08:04;;;;;;;1.12;1.02;;;;;;;13.32;73.91;100499.84;4377276;32;33548;-82
2022/11/01 02:10:33;;;;;;;1.23;1.15;;;;;;;13.29;73.78;100499.13;4389060;32;33448;-83
2022/11/01 02:13:01;;;;;;;0.98;0.98;;;;;;;13.14;74.40;100486.50;4392465;32;35856;-83
2022/11/01 02:15:40;;;;;;;3.65;2.97;;;;;;;13.24;73.79;100485.19;4389814;32;33113;-82
2022/11/01 02:18:15;;;;;;;5.25;3.20;;;;;;;13.12;74.68;100480.41;4365708;32;34335;-83
2022/11/01 02:21:26;;;;;;;1.20;1.02;;;;;;;13.11;74.51;100490.16;4402695;32;34308;-84
2022/11/01 02:24:12;;;;;;;2.22;2.12;;;;;;;13.27;74.19;100490.38;4348481;32;33561;-83
2022/11/01 02:27:02;;;;;;;2.28;1.92;;;;;;;13.20;74.31;100489.78;4375505;32;34837;-83
2022/11/01 02:30:07;;;;;;;1.58;1.52;;;;;;;13.19;74.25;100487.16;4377305;32;32323;-84
2022/11/01 02:32:54;;;;;;;2.62;0.98;;;;;;;13.40;73.64;100475.66;4391102;32;32938;-84
2022/11/01 02:35:32;;;;;;;1.25;1.25;;;;;;;13.19;74.55;100481.84;4401426;32;33653;-84
2022/11/01 02:38:34;;;;;;;2.70;1.42;;;;;;;13.64;72.72;100467.53;4382418;32;33434;-84
2022/11/01 02:41:12;;;;;;;4.95;3.67;;;;;;;13.46;73.64;100462.12;4388756;32;33388;-83
2022/11/01 02:43:52;;;;;;;0.65;0.60;;;;;;;12.85;75.51;100455.94;4388711;32;34182;-83
2022/11/01 02:49:10;;;;;;;2.00;1.55;;;;;;;13.27;73.72;100453.25;4379743;32;32939;-84
2022/11/01 02:51:38;;;;;;;0.75;0.75;;;;;;;13.23;73.89;100456.97;4389521;32;32861;-84
2022/11/01 02:54:09;;;;;;;1.87;1.52;;;;;;;12.91;75.41;100459.19;4376213;32;32298;-84
2022/11/01 02:56:38;;;;;;;3.95;2.28;;;;;;;13.38;73.58;100456.28;4388811;32;34574;-84
2022/11/01 02:59:15;;;;;;;1.87;1.73;;;;;;;13.25;74.55;100460.44;4377296;32;33722;-85
2022/11/01 03:01:49;;;;;;;0.95;0.85;;;;;;;13.12;74.75;100475.13;4379925;32;33812;-83
2022/11/01 03:04:18;;;;;;;3.10;2.50;;;;;;;13.30;73.94;100472.56;4366276;32;32832;-83
2022/11/01 03:06:52;;;;;;;8.65;2.90;;;;;;;12.93;75.19;100473.25;4389369;32;33846;-84
2022/11/01 03:09:20;;;;;;;5.32;2.72;;;;;;;13.10;74.64;100461.91;4389763;32;33855;-84
2022/11/01 03:11:53;;;;;;;3.47;1.87;;;;;;;13.36;73.97;100468.75;4389211;32;34007;-84
2022/11/01 03:14:32;;;;;;;2.20;1.33;;;;;;;13.25;74.41;100476.34;4388225;32;32493;-83
2022/11/01 03:17:08;;;;;;;2.30;2.00;;;;;;;13.04;74.94;100478.09;4378870;32;33623;-83
2022/11/01 03:20:05;;;;;;;8.60;2.72;;;;;;;13.00;75.10;100472.03;4391503;32;34197;-84
2022/11/01 03:22:46;;;;;;;2.78;2.58;;;;;;;12.96;74.79;100467.84;4378889;32;34033;-84
2022/11/01 03:28:05;;;;;;;0.40;0.40;;;;;;;12.91;75.21;100467.13;4404294;32;33433;-83
2022/11/01 03:30:34;;;;;;;3.92;2.67;;;;;;;13.16;74.25;100472.25;4366852;32;34235;-84
2022/11/01 03:33:02;;;;;;;1.75;1.65;;;;;;;13.18;74.48;100472.19;4393252;32;34218;-84
2022/11/01 03:35:34;;;;;;;1.25;1.15;;;;;;;13.00;75.50;100471.19;4391166;32;31957;-84
2022/11/01 03:38:12;;;;;;;4.07;2.20;;;;;;;12.75;76.75;100471.37;4378810;32;34085;-83
2022/11/01 03:40:43;;;;;;;3.00;2.80;;;;;;;13.02;75.85;100472.84;4404051;32;33721;-82
2022/11/01 03:43:14;;;;;;;6.30;2.85;;;;;;;13.28;74.65;100468.22;4379100;32;33694;-82
2022/11/01 03:45:42;;;;;;;2.70;2.37;;;;;;;13.23;74.64;100463.13;4382658;32;33065;-83
2022/11/01 03:48:09;;;;;;;2.33;2.17;;;;;;;13.28;74.81;100470.87;4390926;32;33793;-82
2022/11/01 03:50:39;;;;;;;1.48;1.27;;;;;;;13.37;73.99;100465.16;4366400;32;34562;-85
2022/11/01 03:53:06;;;;;;;1.85;0.73;;;;;;;12.96;75.59;100467.84;4378262;32;34105;-83
2022/11/01 03:55:34;;;;;;;1.58;1.48;;;;;;;13.51;73.84;100468.06;4391657;32;32336;-84
2022/11/01 03:58:02;;;;;;;4.50;1.60;;;;;;;13.57;73.39;100462.47;4391416;32;33903;-83
2022/11/01 04:00:36;;;;;;;13.82;2.20;;;;;;;13.73;72.87;100456.50;4391110;32;33634;-83
2022/11/01 04:03:05;;;;;;;1.80;1.70;;;;;;;13.89;72.15;100451.31;4391011;32;32414;-84
2022/11/01 04:05:34;;;;;;;2.17;2.08;;;;;;;13.75;72.10;100447.50;4391124;32;33238;-84
2022/11/01 04:08:02;;;;;;;1.98;1.87;;;;;;;13.27;74.04;100447.94;4378554;32;33918;-83
2022/11/01 04:10:31;;;;;;;1.58;1.48;;;;;;;13.00;75.45;100444.69;4391257;32;33501;-83
2022/11/01 04:12:58;;;;;;;2.50;1.77;;;;;;;13.06;75.66;100439.12;4390568;32;34469;-84
2022/11/01 04:21:13;;;;;;;1.15;0.75;;;;;;;13.29;74.27;100435.47;4380389;32;33766;-84
2022/11/01 04:23:43;;;;;;;6.15;1.67;;;;;;;13.10;75.05;100435.38;4403548;32;34283;-84
2022/11/01 04:26:15;;;;;;;3.80;3.25;;;;;;;12.83;75.88;100434.81;4381416;32;32351;-84
2022/11/01 04:28:55;;;;;;;2.75;2.55;;;;;;;13.37;74.03;100437.78;4377983;32;32363;-84
2022/11/01 04:31:35;;;;;;;1.08;1.08;;;;;;;12.95;75.48;100438.72;4384405;32;33765;-84
2022/11/01 04:34:04;;;;;;;2.03;1.85;;;;;;;13.11;74.91;100441.59;4378086;32;32796;-83
2022/11/01 04:36:31;;;;;;;0.50;0.50;;;;;;;13.18;74.73;100443.87;4396928;32;34949;-83
2022/11/01 04:39:00;;;;;;;3.70;2.87;;;;;;;13.33;74.11;100442.38;4378493;32;34246;-82
2022/11/01 04:41:29;;;;;;;1.77;1.67;;;;;;;13.01;74.60;100436.69;4397529;32;33247;-82
2022/11/01 04:43:57;;;;;;;3.60;3.30;;;;;;;12.99;74.83;100440.31;4373903;32;32540;-83
2022/11/01 04:46:30;;;;;;;2.92;2.25;;;;;;;13.04;74.68;100439.19;4396787;32;33911;-83
2022/11/01 04:48:58;;;;;;;;;;;;;;;13.17;73.86;100430.69;4390744;32;35486;-83
2022/11/01 04:51:25;;;;;;;1.45;0.62;;;;;;;13.19;74.11;100436.78;4402121;32;33347;-82
2022/11/01 04:53:54;;;;;;;0.40;0.40;;;;;;;12.88;75.10;100438.13;4402693;32;33604;-83
2022/11/01 04:56:22;;;;;;;4.22;0.98;;;;;;;12.72;75.68;100439.69;4383616;32;33263;-83
2022/11/01 04:58:50;;;;;;;1.58;1.45;;;;;;;13.07;74.72;100436.41;4377809;32;34108;-82
2022/11/01 05:01:19;;;;;;;3.78;2.83;;;;;;;12.96;74.92;100448.38;4391116;32;34748;-83
2022/11/01 05:03:48;;;;;;;1.55;1.45;;;;;;;13.00;74.86;100444.69;4402960;32;34261;-83
2022/11/01 05:06:16;;;;;;;3.12;2.40;;;;;;;12.99;75.24;100449.12;4391082;32;33407;-83
2022/11/01 05:08:44;;;;;;;4.45;1.45;;;;;;;13.10;74.52;100453.09;4390533;32;33857;-83
2022/11/01 05:11:13;;;;;;;1.10;0.93;;;;;;;12.72;75.87;100445.00;4390929;32;33034;-83
2022/11/01 05:13:43;;;;;;;2.45;1.75;;;;;;;13.10;74.43;100435.38;4378601;32;33127;-82
2022/11/01 05:16:12;;;;;;;1.55;1.45;;;;;;;13.32;73.49;100441.50;4381924;32;32205;-82
2022/11/01 05:18:47;;;;;;;3.53;2.28;;;;;;;12.94;74.94;100437.84;4390468;32;33879;-83
2022/11/01 05:21:19;;;;;;;1.70;1.50;;;;;;;12.86;75.01;100442.62;4388898;32;34772;-84
2022/11/01 05:23:47;;;;;;;1.45;1.35;;;;;;;12.95;74.87;100442.22;4389509;32;32876;-84
2022/11/01 05:26:16;;;;;;;4.22;2.80;;;;;;;13.00;74.76;100437.59;4387675;32;32752;-83
2022/11/01 05:28:43;;;;;;;2.55;2.35;;;;;;;13.03;74.66;100440.09;4387424;32;33825;-85
2022/11/01 05:31:12;;;;;;;2.45;1.95;;;;;;;12.84;75.67;100422.44;4363645;32;34082;-84
2022/11/01 05:33:40;;;;;;;6.45;1.48;;;;;;;13.11;74.22;100431.84;4363010;32;34208;-85
2022/11/01 05:36:08;;;;;;;2.65;2.45;;;;;;;12.90;75.14;100427.44;4384872;32;34038;-85
2022/11/01 05:38:36;;;;;;;1.17;1.10;;;;;;;12.95;74.64;100434.28;4388470;32;33978;-85
2022/11/01 05:41:04;;;;;;;2.28;1.45;;;;;;;13.18;74.03;100429.75;4392864;32;33674;-85
2022/11/01 05:43:32;;;;;;;7.20;1.52;;;;;;;13.42;73.10;100434.00;4376931;32;35835;-85
2022/11/01 05:46:05;;;;;;;3.40;3.15;;;;;;;13.56;72.20;100441.31;4388560;32;33474;-85
2022/11/01 05:48:34;;;;;;;2.90;2.62;;;;;;;12.89;74.82;100431.91;4387802;32;33386;-84
2022/11/01 05:51:04;;;;;;;1.65;1.55;;;;;;;13.35;73.32;100442.31;4405212;32;33614;-85
2022/11/01 05:53:39;;;;;;;1.25;1.15;;;;;;;13.23;73.71;100441.91;4376645;32;33954;-85
2022/11/01 05:56:07;;;;;;;2.90;2.65;;;;;;;13.41;73.05;100439.38;4363536;32;33368;-85
2022/11/01 05:58:36;;;;;;;1.80;1.70;;;;;;;13.22;73.40;100439.34;4384134;32;33124;-84
2022/11/01 06:01:05;;;;;;;1.75;1.02;;;;;;;12.87;75.00;100438.22;4388710;32;34355;-85
2022/11/01 06:03:35;;;;;;;1.70;1.52;;;;;;;12.85;74.89;100438.25;4375604;32;33680;-84
2022/11/01 06:06:05;;;;;;;2.72;1.55;;;;;;;12.67;76.04;100447.84;4367863;32;35185;-84
2022/11/01 06:08:41;;;;;;;12.65;1.77;;;;;;;12.80;75.44;100453.50;4407328;32;35430;-83
2022/11/01 06:11:12;;;;;;;0.85;0.82;;;;;;;13.07;74.39;100444.34;4393952;32;34479;-84
2022/11/01 06:13:42;;;;;;;2.65;2.05;;;;;;;13.08;73.83;100448.72;4377630;32;34148;-83
2022/11/01 06:16:11;;;;;;;2.95;2.58;;;;;;;12.46;76.46;100460.19;4391147;32;303709;-84
2022/11/01 06:18:40;;;;;;;6.47;2.17;;;;;;;12.50;76.20;100453.00;4393215;32;33836;-85
2022/11/01 06:21:08;;;;;;;1.27;1.25;;;;;;;12.64;76.03;100452.44;4388156;32;34767;-84
2022/11/01 06:23:37;;;;;;;0.80;0.80;;;;;;;12.72;76.20;100455.59;4388527;32;33790;-84
2022/11/01 06:26:11;;;;;;;5.10;4.50;;;;;;;12.47;76.49;100446.03;4400977;32;33414;-84
2022/11/01 06:28:41;;;;;;;2.90;2.58;;;;;;;13.11;74.33;100452.19;4392322;32;33815;-85
2022/11/01 06:31:10;;;;;;;2.33;2.20;;;;;;;13.05;74.54;100448.00;4375975;32;34154;-84
2022/11/01 06:33:49;;;;;;;7.35;2.05;;;;;;;12.64;76.16;100452.44;4376776;32;33929;-84
2022/11/01 06:36:17;;;;;;;1.62;1.30;;;;;;;12.86;75.10;100447.91;4387941;32;34057;-84
2022/11/01 06:38:48;;;;;;;5.87;3.17;;;;;;;13.15;73.90;100443.16;4395294;32;33326;-84
2022/11/01 06:41:17;;;;;;;13.10;6.35;;;;;;;13.03;74.15;100450.72;4368331;32;35414;-84
2022/11/01 06:43:47;;;;;;;1.08;1.08;;;;;;;13.31;73.18;100457.50;4366452;32;33892;-84
2022/11/01 06:46:24;;;;;;;1.92;1.83;;;;;;;13.08;73.64;100461.97;4378235;32;31604;-84
2022/11/01 06:48:53;;;;;;;1.70;1.60;;;;;;;13.04;73.84;100468.34;4405155;32;34714;-84
2022/11/01 06:51:24;;;;;;;3.95;2.12;;;;;;;13.11;73.54;100458.34;4374063;32;34469;-84
2022/11/01 06:53:54;;;;;;;5.10;2.83;;;;;;;13.05;73.45;100470.09;4389631;32;33693;-84
2022/11/01 06:56:22;;;;;;;2.85;2.05;;;;;;;13.11;73.54;100470.75;4379357;32;32282;-83
2022/11/01 06:58:56;;;;;;;2.55;1.87;;;;;;;13.15;73.28;100465.25;4366731;32;34648;-85
2022/11/01 07:01:25;;;;;;;1.75;1.42;;;;;;;12.92;74.47;100468.03;4379727;32;33611;-84
2022/11/01 07:04:05;;;;;;;5.05;2.00;;;;;;;12.88;74.85;100462.00;4366211;32;33417;-83
2022/11/01 07:06:33;;;;;;;4.62;2.92;;;;;;;13.19;73.69;100471.25;4377611;32;32026;-82
2022/11/01 07:09:05;;;;;;;3.95;2.03;;;;;;;13.25;73.34;100466.59;4378982;32;34601;-83
2022/11/01 07:11:38;;;;;;;6.68;2.50;;;;;;;13.11;73.79;100470.75;4376747;32;33952;-84
2022/11/01 07:14:13;;;;;;;5.20;2.85;;;;;;;13.39;72.72;100473.94;4378138;32;33744;-84
2022/11/01 07:16:45;;;;;;;1.55;1.45;;;;;;;13.47;72.34;100471.78;4379507;32;35061;-84
2022/11/01 07:19:16;;;;;;;3.47;2.42;;;;;;;13.36;72.73;100475.88;4380332;32;33233;-84
2022/11/01 07:21:55;;;;;;;1.05;1.05;;;;;;;13.04;73.77;100478.09;4377331;32;33654;-84
2022/11/01 07:24:32;;;;;;;1.00;0.95;;;;;;;12.86;74.75;100482.38;4405605;32;34068;-84
2022/11/01 07:27:03;;;;;;;3.25;2.97;;;;;;;12.69;75.30;100469.00;4377630;32;30979;-84
2022/11/01 07:29:36;;;;;;;2.62;2.42;;;;;;;13.03;74.22;100463.97;4374621;32;32233;-84
2022/11/01 07:32:06;;;;;;;1.67;1.58;;;;;;;13.21;73.32;100477.37;4375449;32;32690;-84
2022/11/01 07:34:44;;;;;;;7.32;2.05;;;;;;;12.95;74.39;100479.34;4374972;32;33644;-84
2022/11/01 07:37:21;;;;;;;0.77;0.77;;;;;;;13.33;73.03;100476.84;4386983;32;35057;-83
2022/11/01 07:39:56;;;;;;;4.10;2.95;;;;;;;13.03;73.88;100471.94;4384589;32;33286;-84
2022/11/01 07:42:27;;;;;;;2.25;2.05;;;;;;;13.06;74.38;100479.75;4374340;32;33957;-83
2022/11/01 07:44:56;;;;;;;2.58;1.95;;;;;;;13.09;73.87;100486.69;4362779;32;35423;-84
2022/11/01 07:47:30;;;;;;;2.17;2.00;;;;;;;13.52;72.65;100479.53;4358881;32;32813;-84
2022/11/01 07:50:07;;;;;;;1.80;1.12;;;;;;;13.20;73.20;100489.78;4362695;32;34732;-84
2022/11/01 07:52:57;;;;;;;2.65;2.45;;;;;;;12.97;73.98;100485.44;4372661;32;34748;-84
2022/11/01 07:55:32;;;;;;;0.68;0.68;;;;;;;12.90;74.35;100486.62;4373581;32;34648;-84
2022/11/01 07:58:01;;;;;;;0.55;0.55;;;;;;;12.95;74.37;100489.94;4361160;32;32164;-83
2022/11/01 08:00:30;;;;;;;5.43;2.80;;;;;;;12.99;73.75;100491.53;4383556;32;33118;-84
2022/11/01 08:03:11;;;;;;;2.85;1.65;;;;;;;12.73;75.22;100484.69;4382425;32;34755;-84
2022/11/01 08:05:40;;;;;;;3.58;1.67;;;;;;;12.96;74.54;100470.47;4361144;32;34198;-85
2022/11/01 08:08:13;;;;;;;9.68;2.58;;;;;;;12.69;75.63;100476.94;4372640;32;34299;-85
2022/11/01 08:11:00;;;;;;;2.58;2.05;;;;;;;12.87;74.89;100470.87;4375988;32;33410;-85
2022/11/01 08:16:06;;;;;;;4.82;2.30;;;;;;;13.35;73.04;100467.03;4360562;32;32208;-84
2022/11/01 08:18:35;;;;;;;1.33;1.30;;;;;;;12.67;75.34;100470.81;4370707;32;32784;-85
2022/11/01 08:21:05;;;;;;;2.72;2.35;;;;;;;12.54;76.31;100466.06;4371576;32;32759;-86
2022/11/01 08:23:33;;;;;;;1.00;0.90;;;;;;;12.86;75.25;100466.47;4363619;32;33631;-87
2022/11/01 08:28:37;;;;;;;1.70;1.60;;;;;;;13.08;74.34;100467.28;4363116;32;33081;-83
2022/11/01 08:31:13;;;;;;;2.55;2.35;;;;;;;12.83;74.90;100474.56;4372231;32;33385;-82
2022/11/01 08:33:44;;;;;;;1.75;1.42;;;;;;;12.88;74.77;100467.28;4372417;32;33401;-83
2022/11/01 08:36:16;;;;;;;1.70;1.58;;;;;;;12.87;74.96;100478.81;4375054;32;34574;-83
2022/11/01 08:38:59;;;;;;;6.40;2.85;;;;;;;13.20;73.62;100470.34;4390935;32;34490;-86
2022/11/01 08:41:30;;;;;;;2.78;2.50;;;;;;;13.14;73.76;100473.25;4364723;32;32497;-86
2022/11/01 08:44:22;;;;;;;3.60;2.90;;;;;;;12.88;75.10;100475.25;4363789;32;32695;-85
2022/11/01 08:46:55;;;;;;;1.67;1.58;;;;;;;13.28;73.33;100474.41;4356708;32;32812;-85
2022/11/01 08:49:32;;;;;;;2.00;1.90;;;;;;;13.30;73.35;100469.91;4355124;32;33551;-86
2022/11/01 08:52:10;;;;;;;4.47;2.65;;;;;;;13.16;74.08;100476.72;4376891;32;32910;-86
2022/11/01 08:55:00;;;;;;;2.00;1.90;;;;;;;13.19;74.21;100471.25;4386099;32;34249;-86
2022/11/01 08:57:43;;;;;;;2.30;2.10;;;;;;;13.32;73.14;100475.13;4387539;32;35452;-85
2022/11/01 09:00:24;;;;;;;5.18;3.22;;;;;;;13.26;73.21;100468.31;4387923;32;32495;-85
2022/11/01 09:02:59;;;;;;;1.45;1.20;;;;;;;12.88;74.55;100467.28;4367416;32;33517;-86
2022/11/01 09:05:30;;;;;;;2.60;2.30;;;;;;;13.04;74.60;100476.28;4365128;32;32418;-86
2022/11/01 09:08:08;;;;;;;2.60;1.95;;;;;;;13.24;73.79;100470.16;4400400;32;34434;-86
2022/11/01 09:10:51;;;;;;;3.03;2.83;;;;;;;13.14;74.13;100470.59;4391180;32;34270;-89
2022/11/01 09:13:20;;;;;;;5.32;3.90;;;;;;;13.08;73.82;100469.06;4390549;32;33259;-88
2022/11/01 09:16:05;;;;;;;2.47;1.87;;;;;;;13.31;73.38;100465.47;4380958;32;34527;-87
2022/11/01 09:18:42;;;;;;;5.12;2.05;;;;;;;13.61;72.01;100462.34;4400032;32;35513;-87
2022/11/01 09:21:13;;;;;;;3.75;2.95;;;;;;;13.71;71.61;100455.69;4377214;32;32287;-87
2022/11/01 09:23:43;;;;;;;5.72;3.05;;;;;;;13.75;71.75;100463.44;4362746;32;33049;-87
2022/11/01 09:26:28;;;;;;;2.95;1.92;;;;;;;13.50;72.74;100466.34;4389474;32;34213;-87
2022/11/01 09:29:01;;;;;;;16.23;1.77;;;;;;;13.40;72.82;100459.75;4388477;32;34223;-89
2022/11/01 09:31:32;;;;;;;3.20;2.97;;;;;;;13.47;72.59;100461.16;4365434;32;32579;-93
2022/11/01 09:34:12;;;;;;;1.75;1.23;;;;;;;13.79;71.21;100456.19;4365932;32;34889;-89
2022/11/01 09:36:41;;;;;;;5.62;3.15;;;;;;;13.60;71.82;100460.63;4389764;32;33112;-88
2022/11/01 09:39:15;;;;;;;2.42;1.50;;;;;;;13.67;71.76;100467.37;4376885;32;33807;-87
2022/11/01 09:41:50;;;;;;;4.37;3.00;;;;;;;13.65;72.03;100463.94;4376863;32;32287;-88
2022/11/01 09:44:30;;;;;;;6.87;2.17;;;;;;;13.69;71.86;100454.91;4389334;32;32612;-88
2022/11/01 09:47:07;;;;;;;4.40;3.05;;;;;;;13.66;72.17;100453.25;4403806;32;33967;-87
2022/11/01 09:50:10;;;;;;;1.65;1.55;;;;;;;13.97;71.02;100455.34;4376689;32;34685;-87
2022/11/01 09:52:54;;;;;;;0.93;0.93;;;;;;;13.78;71.27;100460.66;4388989;32;33446;-88
2022/11/01 09:55:54;;;;;;;1.85;1.73;;;;;;;13.55;72.31;100459.03;4400827;32;34616;-88
2022/11/01 09:58:53;;;;;;;1.37;1.37;;;;;;;13.41;73.00;100464.09;4356285;32;33330;-88
2022/11/01 10:01:56;;;;;;;1.08;1.05;;;;;;;13.49;72.79;100456.69;4399700;32;34253;-88
2022/11/01 10:04:33;;;;;;;3.40;2.45;;;;;;;13.56;72.27;100455.44;4388889;32;33609;-88
2022/11/01 10:10:20;;;;;;;2.72;1.67;;;;;;;13.88;70.76;100453.13;4386521;32;33454;-87
2022/11/01 10:13:09;;;;;;;;;;;;;;;13.81;71.19;100456.97;4379506;32;33468;-87
2022/11/01 10:18:44;;;;;;;0.70;0.70;;;;;;;13.62;71.37;100442.84;4399547;32;33123;-88
2022/11/01 10:24:02;;;;;;;16.08;3.03;;;;;;;13.90;71.01;100437.97;4365565;32;33504;-88
2022/11/01 10:26:34;;;;;;;4.05;2.42;;;;;;;13.97;70.92;100441.19;4385412;32;32101;-88
2022/11/01 10:29:15;;;;;;;0.80;0.75;;;;;;;13.83;71.76;100440.06;4371947;32;32626;-88
2022/11/01 10:31:45;;;;;;;2.60;2.45;;;;;;;14.13;70.99;100433.34;4391299;32;33887;-88
2022/11/01 10:34:32;;;;;;;1.62;1.55;;;;;;;14.33;69.41;100436.75;4391787;32;33646;-88
2022/11/01 10:40:03;;;;;;;2.03;1.60;;;;;;;13.61;72.58;100438.47;4402904;32;34533;-87
2022/11/01 10:42:43;;;;;;;1.73;1.62;;;;;;;13.67;72.46;100441.69;4378702;32;33987;-87
2022/11/01 10:50:33;;;;;;;2.03;1.92;;;;;;;14.21;70.57;100436.50;4378175;32;32514;-88
2022/11/01 10:53:10;;;;;;;2.05;1.95;;;;;;;14.08;70.76;100433.56;4383500;32;32859;-87
2022/11/01 10:55:58;;;;;;;2.70;2.35;;;;;;;13.86;72.09;100446.13;4390639;32;34272;-87
2022/11/01 10:58:46;;;;;;;1.55;1.45;;;;;;;13.99;71.43;100432.22;4391680;32;34355;-88
2022/11/01 11:01:25;;;;;;;2.37;2.05;;;;;;;13.95;71.21;100427.13;4389895;32;33468;-88
2022/11/01 11:04:03;;;;;;;1.95;1.83;;;;;;;14.33;69.93;100428.78;4379171;32;34689;-88
2022/11/01 11:07:13;;;;;;;7.05;3.55;;;;;;;13.61;72.95;100435.81;4379024;32;34262;-87
2022/11/01 11:12:30;;;;;;;2.28;1.83;;;;;;;14.22;70.25;100432.91;4385769;32;33897;-88
2022/11/01 11:15:05;;;;;;;2.08;1.62;;;;;;;13.79;72.16;100427.00;4377899;32;34295;-88
2022/11/01 11:17:49;;;;;;;3.58;3.28;;;;;;;14.03;71.30;100433.78;4379694;32;33644;-88
2022/11/01 11:20:36;;;;;;;4.22;3.17;;;;;;;13.88;71.26;100423.06;4379642;32;35134;-88
2022/11/01 11:23:08;;;;;;;3.03;2.83;;;;;;;14.14;70.33;100421.78;4390970;32;33883;-87
2022/11/01 11:25:49;;;;;;;1.40;1.30;;;;;;;14.21;70.39;100416.13;4390384;32;35702;-88
2022/11/01 11:28:29;;;;;;;3.00;2.53;;;;;;;14.31;69.39;100417.38;4378780;32;34655;-88
2022/11/01 11:31:27;;;;;;;7.55;1.73;;;;;;;13.96;70.93;100419.09;4372960;32;31558;-88
2022/11/01 11:37:04;;;;;;;2.70;1.92;;;;;;;14.02;70.91;100413.50;4371115;32;33333;-88
2022/11/01 11:40:02;;;;;;;5.78;3.28;;;;;;;14.23;70.34;100413.37;4380477;32;33582;-88
2022/11/01 11:42:32;;;;;;;5.12;3.53;;;;;;;14.19;70.42;100411.81;4384430;32;34114;-88
2022/11/01 11:48:20;;;;;;;3.80;2.62;;;;;;;14.19;69.82;100407.34;4387127;32;32071;-88
2022/11/01 11:51:03;;;;;;;2.95;2.42;;;;;;;14.44;69.30;100409.69;4367251;32;35741;-88
2022/11/01 11:53:37;;;;;;;3.10;2.12;;;;;;;14.78;67.42;100405.34;4385296;32;32503;-87
2022/11/01 11:56:08;;;;;;;6.93;3.42;;;;;;;14.47;68.79;100406.84;4372788;32;32922;-87
2022/11/01 11:58:47;;;;;;;1.83;1.73;;;;;;;14.83;67.72;100409.47;4360876;32;33374;-88
2022/11/01 12:01:22;;;;;;;2.78;2.47;;;;;;;14.97;67.46;100392.81;4376711;32;33714;-88
2022/11/01 12:03:56;;;;;;;5.93;2.37;;;;;;;14.61;68.36;100398.22;4391798;32;34050;-88
2022/11/01 12:06:32;;;;;;;5.18;3.47;;;;;;;14.56;69.17;100395.78;4372900;32;33671;-88
2022/11/01 12:09:34;;;;;;;3.65;3.35;;;;;;;14.80;67.51;100387.50;4379933;32;34060;-88
2022/11/01 12:14:53;;;;;;;2.45;2.25;;;;;;;14.41;68.67;100391.22;4366242;32;34085;-88
2022/11/01 12:17:49;;;;;;;3.58;2.70;;;;;;;14.50;68.45;100384.62;4384757;32;34304;-88
2022/11/01 12:20:35;;;;;;;2.87;2.33;;;;;;;14.75;67.60;100378.91;4377703;32;34784;-88
2022/11/01 12:23:19;;;;;;;1.90;1.75;;;;;;;14.85;66.96;100374.81;4380891;32;34028;-88
2022/11/01 12:25:50;;;;;;;5.05;2.90;;;;;;;14.99;66.47;100369.63;4390419;32;33143;-88
2022/11/01 12:31:20;;;;;;;5.43;4.10;;;;;;;14.89;67.08;100378.19;4382627;32;33308;-88
2022/11/01 12:37:04;;;;;;;4.68;2.70;;;;;;;15.01;66.66;100365.13;4371018;32;33658;-88
2022/11/01 12:39:42;;;;;;;20.77;3.85;;;;;;;14.60;67.62;100365.47;4392688;32;34723;-88
2022/11/01 12:42:28;;;;;;;3.12;1.90;;;;;;;14.78;67.21;100368.12;4399278;32;33439;-89
2022/11/01 12:45:06;;;;;;;5.47;2.72;;;;;;;14.97;67.15;100357.38;4367908;32;33777;-88
2022/11/01 12:47:41;;;;;;;5.62;3.92;;;;;;;14.96;67.16;100358.31;4398327;32;33601;-88